Time;durP1;ratioP1;P1;durP2;ratioP2;P2;SDS_P1;SDS_P2;PMS_P1;PMS_P2;Temp;Humidity;BMP_temperature;BMP_pressure;BME280_temperature;BME280_humidity;BME280_pressure;Samples;Min_cycle;Max_cycle;Signal;HPM_P1;HPM_P2
2023/05/08 00:01:24;;;;;;;5.80;2.50;;;;;;;10.35;74.03;101723.04;107554;1251;97921;-59
2023/05/08 00:03:53;;;;;;;8.60;3.20;;;;;;;10.36;73.87;101723.50;107528;1252;98200;-59
2023/05/08 00:06:22;;;;;;;6.20;2.50;;;;;;;10.34;73.93;101722.20;107561;1251;110660;-61
2023/05/08 00:08:51;;;;;;;4.10;2.40;;;;;;;10.33;73.67;101723.35;107552;1253;109087;-61
2023/05/08 00:11:19;;;;;;;3.40;2.20;;;;;;;10.33;73.85;101729.27;107532;1254;108682;-60
2023/05/08 00:13:48;;;;;;;5.40;2.70;;;;;;;10.31;73.82;101729.77;107570;1251;97818;-59
2023/05/08 00:16:16;;;;;;;8.20;2.20;;;;;;;10.29;73.77;101732.58;107594;1251;97832;-59
2023/05/08 00:18:45;;;;;;;6.90;2.30;;;;;;;10.27;73.92;101731.63;107530;1254;110775;-60
2023/05/08 00:21:14;;;;;;;3.70;2.40;;;;;;;10.27;74.02;101736.32;107572;1254;110514;-62
2023/05/08 00:23:42;;;;;;;4.50;3.20;;;;;;;10.25;73.91;101739.85;107506;1254;108220;-58
2023/05/08 00:26:11;;;;;;;8.00;2.60;;;;;;;10.24;73.99;101743.71;107561;1251;97848;-60
2023/05/08 00:28:39;;;;;;;5.10;3.00;;;;;;;10.20;73.78;101745.46;107571;1251;97691;-60
2023/05/08 00:31:07;;;;;;;6.10;2.30;;;;;;;10.17;74.19;101744.53;107624;1251;112315;-60
2023/05/08 00:33:36;;;;;;;5.90;2.40;;;;;;;10.10;74.66;101744.33;107520;1251;109222;-60
2023/05/08 00:36:04;;;;;;;6.90;2.50;;;;;;;10.09;74.74;101745.52;107547;1251;108485;-60
2023/05/08 00:38:35;;;;;;;7.70;2.60;;;;;;;10.10;74.82;101752.94;107549;1251;97819;-59
2023/05/08 00:41:03;;;;;;;7.00;2.60;;;;;;;10.12;74.82;101757.11;107602;1251;98372;-60
2023/05/08 00:43:32;;;;;;;7.30;3.00;;;;;;;10.12;74.71;101756.25;107544;1251;111445;-60
2023/05/08 00:46:01;;;;;;;4.40;2.60;;;;;;;10.13;74.93;101754.18;107581;1253;108800;-58
2023/05/08 00:48:33;;;;;;;5.40;2.40;;;;;;;10.16;75.05;101751.64;107579;1252;108301;-59
2023/05/08 00:51:04;;;;;;;5.20;3.10;;;;;;;10.18;75.05;101743.07;107565;1255;97694;-59
2023/05/08 00:53:37;;;;;;;5.70;2.70;;;;;;;10.21;75.05;101735.69;107534;1252;98250;-60
2023/05/08 00:56:10;;;;;;;7.00;2.80;;;;;;;10.22;74.96;101736.31;107602;1251;112198;-60
2023/05/08 00:58:40;;;;;;;8.90;2.80;;;;;;;10.23;74.82;101734.33;107612;1251;109520;-60
2023/05/08 01:01:09;;;;;;;3.60;2.00;;;;;;;10.20;74.71;101732.39;107505;1255;108778;-60
2023/05/08 01:03:38;;;;;;;6.50;2.30;;;;;;;10.15;74.60;101734.16;107577;1252;97866;-60
2023/05/08 01:06:07;;;;;;;3.90;2.20;;;;;;;10.12;74.60;101734.13;107671;1251;98392;-60
2023/05/08 01:08:35;;;;;;;3.40;2.40;;;;;;;10.12;74.76;101739.23;107540;1250;112422;-59
2023/05/08 01:11:48;;;;;;;2.60;2.20;;;;;;;10.12;74.71;101734.17;107611;1251;110191;-60
2023/05/08 01:14:35;;;;;;;4.20;2.40;;;;;;;10.08;74.61;101727.48;107444;1256;108372;-58
2023/05/08 01:17:03;;;;;;;5.70;1.70;;;;;;;10.05;74.67;101723.02;107643;1254;97710;-61
2023/05/08 01:20:05;;;;;;;4.10;2.60;;;;;;;10.04;74.78;101717.33;107586;1254;98373;-59
2023/05/08 01:22:42;;;;;;;3.90;2.40;;;;;;;10.06;74.87;101722.95;107627;1251;110734;-59
2023/05/08 01:25:48;;;;;;;7.30;2.50;;;;;;;10.09;74.83;101725.75;107578;1254;109808;-60
2023/05/08 01:28:45;;;;;;;6.10;2.20;;;;;;;10.09;74.47;101730.77;107497;1253;106644;-61
2023/05/08 01:31:20;;;;;;;3.20;2.60;;;;;;;10.07;74.33;101727.94;107551;1251;97863;-60
2023/05/08 01:34:10;;;;;;;5.50;3.10;;;;;;;10.02;74.23;101733.59;107616;1251;98456;-60
2023/05/08 01:36:42;;;;;;;4.60;2.00;;;;;;;9.99;74.84;101732.56;107600;1251;112001;-65
2023/05/08 01:39:30;;;;;;;2.90;2.20;;;;;;;9.91;74.73;101734.91;107574;1251;110921;-63
2023/05/08 01:42:01;;;;;;;5.80;2.40;;;;;;;9.86;74.70;101734.39;107571;1251;106696;-59
2023/05/08 01:44:38;;;;;;;6.00;2.60;;;;;;;9.85;74.79;101734.95;107558;1256;97890;-60
2023/05/08 01:47:10;;;;;;;6.40;2.40;;;;;;;9.90;75.02;101740.41;107620;1254;98431;-60
2023/05/08 01:49:44;;;;;;;5.60;2.60;;;;;;;9.94;75.12;101737.25;107568;1251;112049;-62
2023/05/08 01:52:33;;;;;;;4.30;2.40;;;;;;;9.97;75.13;101734.66;107555;1254;109336;-61
2023/05/08 01:55:09;;;;;;;6.90;2.80;;;;;;;9.99;75.09;101736.33;107614;1254;107461;-61
2023/05/08 01:57:42;;;;;;;8.60;2.50;;;;;;;10.02;75.21;101728.41;107486;1254;97831;-61
2023/05/08 02:00:11;;;;;;;;;;;;;;;10.05;75.30;101728.02;107539;1253;97752;-61
2023/05/08 02:02:40;;;;;;;8.40;3.00;;;;;;;10.05;75.25;101727.69;107586;1254;110073;-62
2023/05/08 02:05:11;;;;;;;9.60;2.50;;;;;;;10.07;75.12;101728.30;107522;1254;109335;-59
2023/05/08 02:07:42;;;;;;;3.90;2.40;;;;;;;10.08;75.27;101729.23;107586;1254;108003;-59
2023/05/08 02:10:12;;;;;;;3.20;2.50;;;;;;;10.12;75.34;101734.71;107598;1251;97815;-61
2023/05/08 02:12:43;;;;;;;5.10;2.70;;;;;;;10.13;75.64;101726.77;107572;1256;97901;-60
2023/05/08 02:15:14;;;;;;;8.80;3.20;;;;;;;10.12;75.58;101728.84;107548;1254;111103;-61
2023/05/08 02:17:45;;;;;;;7.60;3.00;;;;;;;10.10;75.62;101723.19;107619;1251;109567;-59
2023/05/08 02:20:15;;;;;;;4.60;2.90;;;;;;;10.12;75.90;101720.22;107476;1251;108592;-60
2023/05/08 02:22:48;;;;;;;3.90;2.10;;;;;;;10.13;75.95;101722.80;107553;1253;97837;-59
2023/05/08 02:25:18;;;;;;;9.20;3.00;;;;;;;10.10;75.70;101719.40;107581;1255;98142;-60
2023/05/08 02:27:48;;;;;;;9.00;3.00;;;;;;;10.10;75.72;101721.76;107510;1251;110641;-59
2023/05/08 02:30:20;;;;;;;5.90;3.00;;;;;;;10.09;75.85;101717.20;107564;1251;109219;-60
2023/05/08 02:32:52;;;;;;;5.50;2.40;;;;;;;10.04;76.07;101716.08;107520;1251;111751;-61
2023/05/08 02:35:24;;;;;;;9.80;4.20;;;;;;;10.00;76.07;101716.75;107573;1254;97919;-59
2023/05/08 02:37:55;;;;;;;5.60;2.30;;;;;;;9.99;76.32;101718.24;107571;1256;97724;-59
2023/05/08 02:40:26;;;;;;;10.60;3.10;;;;;;;9.99;76.46;101718.08;107567;1253;112128;-61
2023/05/08 02:42:56;;;;;;;5.70;2.80;;;;;;;10.00;76.47;101721.91;107517;1254;109907;-61
2023/05/08 02:45:31;;;;;;;9.80;3.00;;;;;;;10.01;76.45;101726.46;107584;1254;107305;-61
2023/05/08 02:48:12;;;;;;;7.40;3.10;;;;;;;10.02;76.42;101727.33;107689;1255;97882;-60
2023/05/08 02:50:50;;;;;;;6.80;3.10;;;;;;;10.02;76.19;101733.27;107585;1251;97822;-61
2023/05/08 02:53:33;;;;;;;4.40;2.70;;;;;;;10.01;76.30;101735.13;107487;1254;110992;-61
2023/05/08 02:56:11;;;;;;;5.70;2.60;;;;;;;10.02;76.34;101740.98;107619;1252;109073;-60
2023/05/08 02:58:44;;;;;;;3.60;2.80;;;;;;;10.00;76.43;101745.74;107576;1252;107950;-60
2023/05/08 03:01:28;;;;;;;6.00;2.80;;;;;;;9.99;76.93;101747.42;107509;1253;97986;-61
2023/05/08 03:04:08;;;;;;;4.80;2.80;;;;;;;9.96;77.35;101743.88;107558;1254;98324;-60
2023/05/08 03:06:44;;;;;;;6.10;2.40;;;;;;;9.90;78.44;101745.95;107503;1254;111225;-62
2023/05/08 03:09:20;;;;;;;5.40;2.90;;;;;;;9.81;78.68;101747.83;107441;1251;109149;-59
2023/05/08 03:11:57;;;;;;;5.90;2.80;;;;;;;9.73;79.28;101751.92;107638;1256;107641;-62
2023/05/08 03:14:29;;;;;;;6.00;2.90;;;;;;;9.67;79.07;101751.44;107529;1251;97838;-60
2023/05/08 03:16:59;;;;;;;9.60;3.40;;;;;;;9.64;78.97;101751.13;107599;1250;97886;-60
2023/05/08 03:19:34;;;;;;;6.40;3.00;;;;;;;9.62;78.66;101753.95;107553;1251;110738;-58
2023/05/08 03:22:07;;;;;;;5.00;3.40;;;;;;;9.61;78.73;101753.81;107517;1251;109035;-61
2023/05/08 03:24:38;;;;;;;9.60;3.40;;;;;;;9.58;79.41;101754.23;107643;1251;107605;-61
2023/05/08 03:27:08;;;;;;;8.20;3.10;;;;;;;9.54;79.10;101755.59;107625;1256;97761;-60
2023/05/08 03:29:38;;;;;;;5.60;3.10;;;;;;;9.49;79.61;101758.24;107590;1251;98319;-60
2023/05/08 03:32:08;;;;;;;7.50;3.60;;;;;;;9.42;80.11;101755.65;107469;1254;111705;-60
2023/05/08 03:34:39;;;;;;;6.20;3.40;;;;;;;9.36;80.56;101759.65;107618;1251;110444;-62
2023/05/08 03:37:08;;;;;;;6.90;3.40;;;;;;;9.30;80.28;101759.89;107616;1251;108325;-59
2023/05/08 03:39:37;;;;;;;7.00;3.40;;;;;;;9.29;81.07;101760.09;107552;1251;97877;-59
2023/05/08 03:42:05;;;;;;;6.60;4.20;;;;;;;9.26;81.18;101761.22;107370;1253;97709;-60
2023/05/08 03:44:34;;;;;;;9.30;3.50;;;;;;;9.23;81.40;101760.70;107537;1254;111534;-61
2023/05/08 03:47:04;;;;;;;7.50;3.30;;;;;;;9.17;81.79;101762.33;107642;1250;109658;-60
2023/05/08 03:49:35;;;;;;;8.80;3.10;;;;;;;9.13;81.86;101763.34;107639;1256;108785;-59
2023/05/08 03:52:04;;;;;;;11.00;3.50;;;;;;;9.11;81.88;101769.55;107512;1251;97701;-61
2023/05/08 03:54:33;;;;;;;4.80;2.90;;;;;;;9.07;81.89;101771.96;107542;1251;98337;-61
2023/05/08 03:57:01;;;;;;;5.00;2.80;;;;;;;9.02;82.52;101774.94;107590;1251;111292;-61
2023/05/08 03:59:45;;;;;;;5.40;2.70;;;;;;;8.96;82.23;101771.95;107564;1251;108939;-62
2023/05/08 04:02:19;;;;;;;4.20;2.90;;;;;;;8.90;82.48;101773.92;107542;1254;107621;-61
2023/05/08 04:04:54;;;;;;;3.60;2.60;;;;;;;8.86;82.55;101778.67;107499;1251;97819;-62
2023/05/08 04:07:27;;;;;;;4.30;2.70;;;;;;;8.83;82.67;101781.04;107560;1256;97871;-64
2023/05/08 04:10:25;;;;;;;3.70;2.50;;;;;;;8.79;82.93;101784.36;107510;1254;113185;-60
2023/05/08 04:13:13;;;;;;;7.50;3.10;;;;;;;8.75;83.27;101792.95;107542;1251;110975;-61
2023/05/08 04:15:52;;;;;;;4.60;3.30;;;;;;;8.73;83.24;101791.67;107518;1251;107684;-60
2023/05/08 04:18:27;;;;;;;5.80;3.10;;;;;;;8.73;83.43;101797.75;107535;1254;97893;-60
2023/05/08 04:20:58;;;;;;;5.50;3.10;;;;;;;8.74;83.72;101798.63;107558;1251;97700;-59
2023/05/08 04:23:28;;;;;;;3.40;2.70;;;;;;;8.75;83.66;101799.22;107555;1251;112046;-59
2023/05/08 04:26:00;;;;;;;6.80;2.70;;;;;;;8.78;83.65;101799.98;107773;1251;109479;-60
2023/05/08 04:28:30;;;;;;;10.40;2.90;;;;;;;8.80;83.40;101800.91;107522;1254;108094;-60
2023/05/08 04:31:01;;;;;;;8.40;2.70;;;;;;;8.82;83.00;101800.44;107577;1254;97813;-61
2023/05/08 04:33:30;;;;;;;4.40;3.10;;;;;;;8.85;83.09;101806.65;107502;1258;97826;-64
2023/05/08 04:36:01;;;;;;;4.90;3.20;;;;;;;8.89;83.28;101809.84;107572;1254;111673;-62
2023/05/08 04:38:36;;;;;;;10.00;4.10;;;;;;;8.91;83.87;101813.79;107590;1253;107617;-61
2023/05/08 04:41:06;;;;;;;11.10;3.70;;;;;;;8.89;84.06;101813.54;107523;1254;107552;-60
2023/05/08 04:43:36;;;;;;;8.60;3.90;;;;;;;8.89;84.32;101812.46;107391;1254;97900;-61
2023/05/08 04:46:05;;;;;;;6.40;3.60;;;;;;;8.89;84.43;101817.66;107564;1252;97765;-61
2023/05/08 04:48:34;;;;;;;6.90;4.00;;;;;;;8.90;84.47;101822.45;107565;1252;111076;-61
2023/05/08 04:51:02;;;;;;;9.50;3.90;;;;;;;8.90;84.33;101822.30;107575;1251;109789;-61
2023/05/08 04:53:31;;;;;;;6.90;4.00;;;;;;;8.90;84.36;101822.61;107469;1251;107951;-61
2023/05/08 04:56:03;;;;;;;9.40;3.40;;;;;;;8.93;84.51;101827.61;107522;1251;97822;-58
2023/05/08 04:58:31;;;;;;;9.40;3.70;;;;;;;8.96;85.04;101824.97;107560;1254;98421;-60
2023/05/08 05:01:04;;;;;;;6.00;3.70;;;;;;;8.95;84.79;101824.48;107499;1256;112130;-60
2023/05/08 05:03:32;;;;;;;12.70;4.60;;;;;;;8.96;84.63;101823.84;107602;1253;110330;-58
2023/05/08 05:06:01;;;;;;;21.80;10.70;;;;;;;8.99;85.11;101826.17;107564;1256;108659;-61
2023/05/08 05:08:30;;;;;;;9.30;4.60;;;;;;;8.98;85.07;101826.42;107605;1251;97803;-63
2023/05/08 05:10:58;;;;;;;11.00;4.50;;;;;;;8.94;84.88;101831.11;107630;1251;97925;-62
2023/05/08 05:13:29;;;;;;;9.90;4.60;;;;;;;8.92;85.14;101836.80;107617;1251;111702;-61
2023/05/08 05:15:59;;;;;;;9.00;5.00;;;;;;;8.88;85.01;101841.71;107617;1251;107999;-60
2023/05/08 05:18:27;;;;;;;8.00;4.00;;;;;;;8.87;85.07;101844.12;107595;1251;107597;-60
2023/05/08 05:20:59;;;;;;;11.40;4.20;;;;;;;8.86;85.05;101845.59;107599;1256;97694;-59
2023/05/08 05:23:29;;;;;;;9.00;4.20;;;;;;;8.88;85.18;101845.50;107559;1251;97818;-59
2023/05/08 05:25:57;;;;;;;7.20;3.60;;;;;;;8.87;85.72;101844.83;107607;1251;112168;-59
2023/05/08 05:28:26;;;;;;;5.60;3.40;;;;;;;8.84;85.49;101845.89;107587;1251;109696;-61
2023/05/08 05:30:55;;;;;;;8.90;3.30;;;;;;;8.87;85.64;101849.86;107619;1251;108905;-59
2023/05/08 05:33:24;;;;;;;5.40;3.60;;;;;;;8.88;85.42;101849.07;107534;1251;97799;-59
2023/05/08 05:35:53;;;;;;;6.10;3.50;;;;;;;8.83;85.09;101851.69;107461;1259;98033;-60
2023/05/08 05:38:22;;;;;;;11.60;3.80;;;;;;;8.84;85.67;101853.23;107642;1251;110365;-61
2023/05/08 05:40:51;;;;;;;13.80;4.10;;;;;;;8.82;85.24;101857.70;107546;1251;110128;-61
2023/05/08 05:43:19;;;;;;;7.40;3.80;;;;;;;8.81;85.26;101856.50;107530;1251;108233;-59
2023/05/08 05:45:48;;;;;;;12.60;3.90;;;;;;;8.80;85.16;101852.80;107583;1251;97704;-61
2023/05/08 05:48:16;;;;;;;7.60;3.80;;;;;;;8.77;84.86;101853.64;107586;1251;97700;-59
2023/05/08 05:50:45;;;;;;;7.90;3.90;;;;;;;8.74;84.73;101856.02;107565;1251;111839;-62
2023/05/08 05:53:14;;;;;;;6.70;4.50;;;;;;;8.67;84.64;101863.83;107522;1251;110024;-60
2023/05/08 05:55:43;;;;;;;10.00;4.00;;;;;;;8.64;84.92;101867.19;107593;1251;109223;-60
2023/05/08 05:58:11;;;;;;;7.90;3.80;;;;;;;8.61;85.29;101866.30;107571;1251;97838;-60
2023/05/08 06:00:39;;;;;;;7.90;4.10;;;;;;;8.60;85.53;101867.79;107490;1251;99523;-61
2023/05/08 06:03:09;;;;;;;4.70;3.80;;;;;;;8.59;85.39;101873.07;107540;1251;111164;-60
2023/05/08 06:05:39;;;;;;;11.50;4.30;;;;;;;8.58;85.19;101877.41;107623;1251;108539;-60
2023/05/08 06:08:07;;;;;;;8.70;3.60;;;;;;;8.60;84.97;101876.95;107545;1255;109110;-62
2023/05/08 06:10:35;;;;;;;17.70;3.60;;;;;;;8.64;85.06;101879.18;107555;1252;97816;-60
2023/05/08 06:13:04;;;;;;;4.20;3.20;;;;;;;8.64;84.67;101882.04;107532;1251;98530;-62
2023/05/08 06:15:33;;;;;;;6.30;3.70;;;;;;;8.60;83.78;101887.80;107578;1254;111525;-62
2023/05/08 06:18:03;;;;;;;8.30;4.00;;;;;;;8.59;83.99;101894.52;107438;1254;109610;-60
2023/05/08 06:20:32;;;;;;;6.60;3.50;;;;;;;8.59;84.11;101893.98;107570;1254;108700;-59
2023/05/08 06:23:01;;;;;;;8.30;3.80;;;;;;;8.60;84.40;101894.45;107540;1254;97928;-61
2023/05/08 06:25:29;;;;;;;5.30;3.40;;;;;;;8.60;84.46;101898.39;107549;1254;98358;-60
2023/05/08 06:27:58;;;;;;;6.30;3.70;;;;;;;8.60;84.42;101894.82;107483;1254;111943;-61
2023/05/08 06:30:27;;;;;;;6.40;3.30;;;;;;;8.60;84.36;101892.09;107543;1251;109005;-62
2023/05/08 06:32:56;;;;;;;7.60;3.80;;;;;;;8.57;84.09;101894.64;107485;1255;108684;-61
2023/05/08 06:35:24;;;;;;;9.90;5.40;;;;;;;8.54;84.08;101897.70;107522;1251;97911;-60
2023/05/08 06:37:53;;;;;;;14.00;4.00;;;;;;;8.53;84.28;101899.70;107544;1251;97829;-61
2023/05/08 06:40:22;;;;;;;11.10;3.60;;;;;;;8.53;84.54;101900.63;107558;1256;111528;-62
2023/05/08 06:42:50;;;;;;;5.50;3.50;;;;;;;8.52;84.58;101901.05;107554;1251;109601;-59
2023/05/08 06:45:19;;;;;;;10.90;3.40;;;;;;;8.52;84.64;101904.41;107526;1251;106896;-61
2023/05/08 06:47:47;;;;;;;5.40;3.30;;;;;;;8.50;84.34;101906.14;107467;1254;97704;-62
2023/05/08 06:50:16;;;;;;;5.00;3.30;;;;;;;8.45;84.38;101900.40;107562;1254;97915;-59
2023/05/08 06:52:44;;;;;;;10.90;3.20;;;;;;;8.47;84.33;101916.33;107562;1254;112391;-61
2023/05/08 06:55:13;;;;;;;5.70;3.50;;;;;;;8.50;84.23;101913.70;107575;1255;108998;-62
2023/05/08 06:57:41;;;;;;;6.70;3.60;;;;;;;8.52;84.10;101915.35;107561;1254;108085;-59
2023/05/08 07:00:11;;;;;;;9.30;3.70;;;;;;;8.50;83.98;101917.61;107499;1251;97749;-59
2023/05/08 07:02:39;;;;;;;7.70;3.60;;;;;;;8.50;83.69;101917.77;107496;1251;97828;-61
2023/05/08 07:05:08;;;;;;;11.20;3.40;;;;;;;8.48;83.23;101924.16;107558;1252;112219;-60
2023/05/08 07:07:37;;;;;;;4.10;2.90;;;;;;;8.49;83.53;101924.10;107524;1251;108971;-61
2023/05/08 07:10:06;;;;;;;4.60;2.90;;;;;;;8.51;83.68;101928.48;107523;1251;108572;-61
2023/05/08 07:12:35;;;;;;;5.70;3.40;;;;;;;8.52;83.61;101934.61;107528;1257;97720;-59
2023/05/08 07:15:04;;;;;;;5.70;3.30;;;;;;;8.53;83.49;101934.73;107576;1257;98428;-61
2023/05/08 07:17:52;;;;;;;10.70;3.10;;;;;;;8.59;83.32;101936.17;107540;1256;111770;-61
2023/05/08 07:20:23;;;;;;;6.70;3.30;;;;;;;8.64;83.23;101937.84;107508;1252;109256;-60
2023/05/08 07:22:51;;;;;;;11.40;3.40;;;;;;;8.67;82.96;101943.55;107518;1256;107685;-61
2023/05/08 07:25:20;;;;;;;5.20;3.30;;;;;;;8.71;82.95;101943.83;107451;1256;97859;-61
2023/05/08 07:27:49;;;;;;;5.70;3.10;;;;;;;8.79;82.74;101946.42;107549;1251;98520;-62
2023/05/08 07:30:17;;;;;;;6.40;2.70;;;;;;;8.85;82.59;101944.26;107598;1251;111470;-61
2023/05/08 07:32:46;;;;;;;7.60;3.50;;;;;;;8.89;82.14;101947.91;107458;1254;109791;-61
2023/05/08 07:35:14;;;;;;;12.60;3.90;;;;;;;8.90;81.64;101948.52;107502;1254;107781;-59
2023/05/08 07:37:44;;;;;;;7.40;3.00;;;;;;;8.96;82.12;101950.31;107557;1256;97819;-61
2023/05/08 07:40:12;;;;;;;8.90;3.30;;;;;;;9.07;82.07;101951.64;107460;1251;97822;-60
2023/05/08 07:42:41;;;;;;;6.40;3.30;;;;;;;9.18;81.94;101951.48;107503;1251;111559;-60
2023/05/08 07:45:11;;;;;;;6.00;3.00;;;;;;;9.28;81.61;101957.11;107513;1254;109785;-61
2023/05/08 07:47:52;;;;;;;11.30;4.10;;;;;;;9.34;81.29;101957.24;107571;1256;108480;-61
2023/05/08 07:50:21;;;;;;;10.20;3.60;;;;;;;9.42;80.84;101960.67;107533;1251;97811;-62
2023/05/08 07:52:50;;;;;;;6.20;3.40;;;;;;;9.47;80.66;101958.58;107595;1251;97717;-60
2023/05/08 07:55:18;;;;;;;13.20;4.50;;;;;;;9.61;80.99;101961.77;107530;1255;111434;-59
2023/05/08 07:57:47;;;;;;;9.80;4.30;;;;;;;9.76;80.91;101965.84;107612;1255;109187;-59
2023/05/08 08:00:17;;;;;;;7.90;3.80;;;;;;;9.85;80.67;101970.77;106708;1256;1104687;-61
2023/05/08 08:02:45;;;;;;;10.30;3.70;;;;;;;9.90;80.30;101965.41;107530;1252;97902;-60
2023/05/08 08:05:14;;;;;;;8.10;4.10;;;;;;;9.90;79.81;101969.77;107571;1251;98809;-59
2023/05/08 08:07:43;;;;;;;10.10;4.30;;;;;;;9.91;79.74;101967.33;107531;1255;111857;-62
2023/05/08 08:10:11;;;;;;;12.70;4.80;;;;;;;9.95;79.87;101965.67;107567;1256;109734;-61
2023/05/08 08:12:39;;;;;;;8.30;5.00;;;;;;;10.02;79.97;101967.52;107537;1251;108618;-59
2023/05/08 08:15:09;;;;;;;9.80;4.10;;;;;;;10.10;79.61;101966.10;107572;1251;97807;-60
2023/05/08 08:17:37;;;;;;;6.30;3.60;;;;;;;10.15;79.57;101968.26;107570;1256;98329;-60
2023/05/08 08:20:07;;;;;;;9.50;4.10;;;;;;;10.17;79.08;101969.02;107596;1256;111062;-59
2023/05/08 08:22:36;;;;;;;10.10;4.10;;;;;;;10.18;78.95;101972.85;107638;1253;110019;-59
2023/05/08 08:25:05;;;;;;;6.70;3.70;;;;;;;10.22;78.97;101972.46;107515;1257;107662;-59
2023/05/08 08:27:33;;;;;;;7.40;3.40;;;;;;;10.23;78.52;101976.11;107587;1251;97820;-60
2023/05/08 08:30:01;;;;;;;7.90;4.00;;;;;;;10.26;78.71;101976.64;107538;1256;97829;-62
2023/05/08 08:32:45;;;;;;;14.30;4.30;;;;;;;10.31;78.34;101978.66;107589;1251;111186;-63
2023/05/08 08:35:14;;;;;;;9.30;4.60;;;;;;;10.30;78.31;101981.73;107593;1255;108826;-61
2023/05/08 08:37:44;;;;;;;10.60;3.70;;;;;;;10.32;78.15;101980.73;107534;1251;108288;-60
2023/05/08 08:40:12;;;;;;;7.50;4.00;;;;;;;10.31;77.27;101981.68;107584;1257;97809;-61
2023/05/08 08:42:40;;;;;;;7.50;4.10;;;;;;;10.29;77.04;101980.80;107559;1251;97704;-60
2023/05/08 08:45:09;;;;;;;7.90;3.50;;;;;;;10.32;77.52;101981.24;107590;1251;111811;-60
2023/05/08 08:47:42;;;;;;;6.20;3.20;;;;;;;10.37;77.06;101982.91;107583;1253;109904;-61
2023/05/08 08:50:13;;;;;;;4.90;2.80;;;;;;;10.37;76.85;101987.25;107478;1254;108021;-60
2023/05/08 08:52:57;;;;;;;7.30;3.60;;;;;;;10.34;76.71;101989.70;107557;1251;97911;-61
2023/05/08 08:55:27;;;;;;;10.20;4.70;;;;;;;10.36;77.18;101994.97;107533;1256;97701;-59
2023/05/08 08:58:20;;;;;;;21.70;4.00;;;;;;;10.38;76.92;101991.67;107552;1256;112441;-61
2023/05/08 09:00:49;;;;;;;4.80;3.60;;;;;;;10.36;76.74;101994.66;107560;1251;107113;-61
2023/05/08 09:03:20;;;;;;;7.10;3.10;;;;;;;10.36;76.64;101988.20;107499;1256;108793;-62
2023/05/08 09:05:53;;;;;;;9.20;3.20;;;;;;;10.35;76.48;101983.43;107622;1251;97778;-61
2023/05/08 09:08:22;;;;;;;7.20;3.60;;;;;;;10.36;75.90;101987.10;107591;1251;97704;-61
2023/05/08 09:10:52;;;;;;;15.00;4.00;;;;;;;10.31;76.13;101991.89;107545;1251;111937;-62
2023/05/08 09:13:21;;;;;;;12.60;5.90;;;;;;;10.24;75.79;101999.02;107506;1256;109282;-60
2023/05/08 09:15:49;;;;;;;12.40;3.20;;;;;;;10.24;76.36;101999.02;107533;1254;108743;-61
2023/05/08 09:18:18;;;;;;;7.60;3.20;;;;;;;10.19;76.17;102002.73;107537;1251;97844;-62
2023/05/08 09:20:48;;;;;;;5.70;3.20;;;;;;;10.11;76.21;102004.72;107477;1251;98434;-62
2023/05/08 09:23:20;;;;;;;6.50;3.30;;;;;;;10.09;76.02;102004.35;107529;1254;111578;-65
2023/05/08 09:25:50;;;;;;;7.90;3.60;;;;;;;10.04;76.09;102003.78;107567;1254;109652;-61
2023/05/08 09:28:23;;;;;;;7.80;4.30;;;;;;;9.99;76.48;102008.17;107540;1251;107780;-60
2023/05/08 09:30:55;;;;;;;7.50;4.00;;;;;;;9.97;76.75;102007.95;107617;1254;97854;-59
2023/05/08 09:33:26;;;;;;;9.70;3.50;;;;;;;10.01;77.38;102007.90;107556;1254;98357;-59
2023/05/08 09:35:55;;;;;;;6.10;3.30;;;;;;;9.98;77.55;102012.01;107686;1254;110886;-60
2023/05/08 09:38:38;;;;;;;27.20;17.60;;;;;;;9.98;77.80;102015.06;107590;1255;109236;-61
2023/05/08 09:41:09;;;;;;;10.50;4.90;;;;;;;9.97;78.02;102017.14;107551;1254;107425;-58
2023/05/08 09:43:38;;;;;;;7.90;3.20;;;;;;;10.06;77.91;102011.88;107514;1255;97934;-61
2023/05/08 09:46:22;;;;;;;8.40;4.10;;;;;;;10.14;77.94;102013.08;107634;1254;98555;-60
2023/05/08 09:48:53;;;;;;;8.00;3.40;;;;;;;10.25;78.14;102013.80;107577;1254;111848;-59
2023/05/08 09:51:23;;;;;;;6.40;3.70;;;;;;;10.33;77.96;102013.64;107591;1254;109079;-61
2023/05/08 09:53:53;;;;;;;4.70;3.30;;;;;;;10.37;77.39;102015.02;107352;1254;108005;-59
2023/05/08 09:56:51;;;;;;;10.90;3.40;;;;;;;10.41;76.75;102013.19;107624;1255;97694;-59
2023/05/08 09:59:30;;;;;;;5.70;2.90;;;;;;;10.48;76.81;102011.63;107481;1254;97707;-59
2023/05/08 10:02:09;;;;;;;13.60;3.30;;;;;;;10.49;75.91;102016.56;107579;1256;111879;-60
2023/05/08 10:04:37;;;;;;;7.80;2.80;;;;;;;10.42;74.90;102016.64;107559;1251;108812;-60
2023/05/08 10:07:06;;;;;;;9.10;4.00;;;;;;;10.38;75.42;102017.86;107467;1251;108210;-59
2023/05/08 10:09:35;;;;;;;10.30;3.30;;;;;;;10.40;75.25;102019.68;107383;1251;97807;-60
2023/05/08 10:12:17;;;;;;;8.00;3.60;;;;;;;10.44;75.52;102019.22;107458;1251;98335;-59
2023/05/08 10:14:46;;;;;;;5.40;2.50;;;;;;;10.48;75.12;102018.73;107424;1254;111066;-60
2023/05/08 10:17:22;;;;;;;5.40;3.00;;;;;;;10.44;74.56;102024.94;107538;1251;108139;-60
2023/05/08 10:19:58;;;;;;;7.10;3.50;;;;;;;10.35;74.12;102027.85;107490;1251;108198;-60
2023/05/08 10:22:28;;;;;;;4.00;2.90;;;;;;;10.25;74.19;102035.92;107537;1251;97806;-60
2023/05/08 10:24:57;;;;;;;7.70;3.20;;;;;;;10.21;74.48;102041.36;107574;1254;98472;-60
2023/05/08 10:27:51;;;;;;;5.40;3.00;;;;;;;10.20;74.21;102040.89;107573;1251;111529;-61
2023/05/08 10:30:24;;;;;;;9.90;2.90;;;;;;;10.17;74.40;102042.52;107591;1254;110060;-60
2023/05/08 10:32:55;;;;;;;8.10;2.80;;;;;;;10.18;74.33;102042.43;107474;1251;107501;-60
2023/05/08 10:35:24;;;;;;;10.80;3.60;;;;;;;10.19;74.25;102043.83;107532;1251;97966;-61
2023/05/08 10:37:54;;;;;;;9.00;3.00;;;;;;;10.20;74.08;102047.50;107532;1251;98506;-62
2023/05/08 10:40:23;;;;;;;4.50;2.50;;;;;;;10.23;74.17;102050.71;107559;1251;112610;-60
2023/05/08 10:42:51;;;;;;;8.00;3.00;;;;;;;10.27;74.21;102054.39;107532;1251;109833;-60
2023/05/08 10:45:20;;;;;;;4.60;2.70;;;;;;;10.31;73.83;102055.36;107571;1251;109333;-64
2023/05/08 10:48:09;;;;;;;6.00;3.00;;;;;;;10.30;73.66;102056.15;107503;1254;97831;-60
2023/05/08 10:51:16;;;;;;;5.70;2.40;;;;;;;10.28;73.29;102053.77;107521;1251;98309;-61
2023/05/08 10:53:52;;;;;;;10.80;3.10;;;;;;;10.29;73.34;102056.77;107461;1251;112384;-62
2023/05/08 10:56:26;;;;;;;5.70;2.40;;;;;;;10.29;72.91;102056.44;107571;1251;110174;-62
2023/05/08 10:58:56;;;;;;;4.40;2.40;;;;;;;10.21;72.37;102059.29;107496;1251;108224;-60
2023/05/08 11:01:25;;;;;;;7.60;2.70;;;;;;;10.11;73.00;102064.04;107539;1251;97765;-61
2023/05/08 11:03:54;;;;;;;14.60;5.40;;;;;;;10.10;72.93;102066.08;107519;1251;97708;-63
2023/05/08 11:06:53;;;;;;;15.00;8.20;;;;;;;10.10;73.03;102068.45;107527;1251;111540;-59
2023/05/08 11:09:43;;;;;;;4.30;2.80;;;;;;;10.08;73.06;102064.48;107396;1251;108720;-61
2023/05/08 11:12:32;;;;;;;6.00;2.70;;;;;;;10.10;73.37;102066.41;107468;1254;108078;-60
2023/05/08 11:15:05;;;;;;;7.20;2.90;;;;;;;10.14;73.62;102070.85;107467;1251;97803;-60
2023/05/08 11:17:33;;;;;;;7.90;2.70;;;;;;;10.15;73.57;102070.96;107558;1251;98341;-60
2023/05/08 11:20:04;;;;;;;6.70;2.80;;;;;;;10.18;73.45;102079.19;107445;1251;112837;-60
2023/05/08 11:22:34;;;;;;;7.50;2.70;;;;;;;10.15;73.21;102072.57;107445;1251;108986;-63
2023/05/08 11:25:08;;;;;;;7.10;2.70;;;;;;;10.07;73.35;102079.05;107502;1251;108167;-59
2023/05/08 11:27:37;;;;;;;3.90;2.60;;;;;;;10.06;73.61;102076.23;107495;1251;97816;-61
2023/05/08 11:30:31;;;;;;;6.20;2.80;;;;;;;10.02;73.64;102074.84;107483;1251;98472;-62
2023/05/08 11:33:03;;;;;;;8.60;2.80;;;;;;;9.94;73.43;102078.59;107466;1251;112483;-62
2023/05/08 11:35:55;;;;;;;5.90;2.70;;;;;;;9.92;73.80;102079.28;107454;1251;109695;-62
2023/05/08 11:38:35;;;;;;;3.60;2.60;;;;;;;9.99;74.11;102076.16;107528;1251;108089;-62